sensor_id;sensor_type;location;lat;lon;timestamp;P1;durP1;ratioP1;P2;durP2;ratioP2
19897;SDS011;10111;50.814;4.572;2022-12-07T00:00:45;14.40;;;10.10;;
19897;SDS011;10111;50.814;4.572;2022-12-07T00:03:11;14.73;;;9.37;;
19897;SDS011;10111;50.814;4.572;2022-12-07T00:05:36;15.63;;;10.50;;
19897;SDS011;10111;50.814;4.572;2022-12-07T00:08:02;16.03;;;10.80;;
19897;SDS011;10111;50.814;4.572;2022-12-07T00:10:28;16.70;;;10.43;;
19897;SDS011;10111;50.814;4.572;2022-12-07T00:12:53;12.67;;;9.80;;
19897;SDS011;10111;50.814;4.572;2022-12-07T00:15:19;14.40;;;10.97;;
19897;SDS011;10111;50.814;4.572;2022-12-07T00:17:45;13.07;;;9.30;;
19897;SDS011;10111;50.814;4.572;2022-12-07T00:20:10;17.10;;;10.30;;
19897;SDS011;10111;50.814;4.572;2022-12-07T00:22:36;14.37;;;10.50;;
19897;SDS011;10111;50.814;4.572;2022-12-07T00:25:02;14.50;;;10.77;;
19897;SDS011;10111;50.814;4.572;2022-12-07T00:27:28;18.57;;;11.13;;
19897;SDS011;10111;50.814;4.572;2022-12-07T00:29:53;15.60;;;10.33;;
19897;SDS011;10111;50.814;4.572;2022-12-07T00:32:19;14.37;;;9.87;;
19897;SDS011;10111;50.814;4.572;2022-12-07T00:34:44;13.73;;;10.47;;
19897;SDS011;10111;50.814;4.572;2022-12-07T00:37:10;12.70;;;10.37;;
19897;SDS011;10111;50.814;4.572;2022-12-07T00:39:37;15.37;;;11.10;;
19897;SDS011;10111;50.814;4.572;2022-12-07T00:42:03;14.50;;;10.57;;
19897;SDS011;10111;50.814;4.572;2022-12-07T00:44:28;16.60;;;10.87;;
19897;SDS011;10111;50.814;4.572;2022-12-07T00:46:54;15.80;;;10.70;;
19897;SDS011;10111;50.814;4.572;2022-12-07T00:49:20;12.73;;;9.53;;
19897;SDS011;10111;50.814;4.572;2022-12-07T00:51:47;13.70;;;10.47;;
19897;SDS011;10111;50.814;4.572;2022-12-07T00:54:14;16.33;;;11.10;;
19897;SDS011;10111;50.814;4.572;2022-12-07T00:56:40;15.70;;;10.93;;
19897;SDS011;10111;50.814;4.572;2022-12-07T00:59:06;16.60;;;10.53;;
19897;SDS011;10111;50.814;4.572;2022-12-07T01:01:33;15.77;;;11.90;;
19897;SDS011;10111;50.814;4.572;2022-12-07T01:04:00;15.20;;;10.70;;
19897;SDS011;10111;50.814;4.572;2022-12-07T01:06:26;16.53;;;12.07;;
19897;SDS011;10111;50.814;4.572;2022-12-07T01:08:53;15.97;;;10.47;;
19897;SDS011;10111;50.814;4.572;2022-12-07T01:11:20;17.13;;;11.00;;
19897;SDS011;10111;50.814;4.572;2022-12-07T01:13:52;21.90;;;11.37;;
19897;SDS011;10111;50.814;4.572;2022-12-07T01:16:19;16.00;;;10.70;;
19897;SDS011;10111;50.814;4.572;2022-12-07T01:18:47;18.73;;;11.40;;
19897;SDS011;10111;50.814;4.572;2022-12-07T01:21:23;15.73;;;11.57;;
19897;SDS011;10111;50.814;4.572;2022-12-07T01:23:51;15.43;;;11.20;;
19897;SDS011;10111;50.814;4.572;2022-12-07T01:26:18;19.60;;;11.23;;
19897;SDS011;10111;50.814;4.572;2022-12-07T01:28:46;17.03;;;11.30;;
19897;SDS011;10111;50.814;4.572;2022-12-07T01:31:17;17.07;;;10.40;;
19897;SDS011;10111;50.814;4.572;2022-12-07T01:33:45;13.47;;;10.50;;
19897;SDS011;10111;50.814;4.572;2022-12-07T01:36:17;14.63;;;11.30;;
19897;SDS011;10111;50.814;4.572;2022-12-07T01:38:54;16.20;;;12.37;;
19897;SDS011;10111;50.814;4.572;2022-12-07T01:41:22;19.47;;;12.17;;
19897;SDS011;10111;50.814;4.572;2022-12-07T01:46:35;22.13;;;14.13;;
19897;SDS011;10111;50.814;4.572;2022-12-07T01:49:01;18.93;;;12.47;;
19897;SDS011;10111;50.814;4.572;2022-12-07T01:51:28;20.00;;;13.27;;
19897;SDS011;10111;50.814;4.572;2022-12-07T01:53:55;18.10;;;12.37;;
19897;SDS011;10111;50.814;4.572;2022-12-07T01:56:22;15.83;;;10.87;;
19897;SDS011;10111;50.814;4.572;2022-12-07T01:58:51;16.90;;;11.43;;
19897;SDS011;10111;50.814;4.572;2022-12-07T02:01:17;17.77;;;11.70;;
19897;SDS011;10111;50.814;4.572;2022-12-07T02:03:43;19.60;;;11.77;;
19897;SDS011;10111;50.814;4.572;2022-12-07T02:06:10;18.53;;;12.70;;
19897;SDS011;10111;50.814;4.572;2022-12-07T02:08:40;18.30;;;12.10;;
19897;SDS011;10111;50.814;4.572;2022-12-07T02:11:07;24.17;;;13.97;;
19897;SDS011;10111;50.814;4.572;2022-12-07T02:13:34;21.07;;;13.00;;
19897;SDS011;10111;50.814;4.572;2022-12-07T02:26:59;20.90;;;13.43;;
19897;SDS011;10111;50.814;4.572;2022-12-07T02:29:41;19.13;;;12.93;;
19897;SDS011;10111;50.814;4.572;2022-12-07T02:35:55;18.30;;;11.90;;
19897;SDS011;10111;50.814;4.572;2022-12-07T02:38:12;20.90;;;11.80;;
19897;SDS011;10111;50.814;4.572;2022-12-07T02:43:33;18.90;;;11.63;;
19897;SDS011;10111;50.814;4.572;2022-12-07T02:46:03;18.33;;;12.03;;
19897;SDS011;10111;50.814;4.572;2022-12-07T02:48:32;17.73;;;12.57;;
19897;SDS011;10111;50.814;4.572;2022-12-07T02:50:59;16.93;;;11.73;;
19897;SDS011;10111;50.814;4.572;2022-12-07T02:53:41;20.73;;;12.57;;
19897;SDS011;10111;50.814;4.572;2022-12-07T03:06:46;12.70;;;10.37;;
19897;SDS011;10111;50.814;4.572;2022-12-07T03:10:01;13.93;;;10.73;;
19897;SDS011;10111;50.814;4.572;2022-12-07T03:12:20;14.40;;;10.37;;
19897;SDS011;10111;50.814;4.572;2022-12-07T03:14:55;13.97;;;10.63;;
19897;SDS011;10111;50.814;4.572;2022-12-07T03:17:28;16.27;;;9.80;;
19897;SDS011;10111;50.814;4.572;2022-12-07T03:20:00;14.20;;;10.87;;
19897;SDS011;10111;50.814;4.572;2022-12-07T03:22:29;11.20;;;8.00;;
19897;SDS011;10111;50.814;4.572;2022-12-07T03:24:58;13.67;;;10.07;;
19897;SDS011;10111;50.814;4.572;2022-12-07T03:27:29;13.33;;;9.37;;
19897;SDS011;10111;50.814;4.572;2022-12-07T03:29:59;14.10;;;9.27;;
19897;SDS011;10111;50.814;4.572;2022-12-07T03:35:25;13.97;;;8.70;;
19897;SDS011;10111;50.814;4.572;2022-12-07T03:43:18;11.00;;;7.93;;
19897;SDS011;10111;50.814;4.572;2022-12-07T03:45:48;13.03;;;9.50;;
19897;SDS011;10111;50.814;4.572;2022-12-07T03:48:42;15.33;;;9.80;;
19897;SDS011;10111;50.814;4.572;2022-12-07T03:51:28;11.73;;;9.03;;
19897;SDS011;10111;50.814;4.572;2022-12-07T03:54:31;14.40;;;9.23;;
19897;SDS011;10111;50.814;4.572;2022-12-07T03:57:01;13.20;;;9.33;;
19897;SDS011;10111;50.814;4.572;2022-12-07T03:59:29;12.60;;;8.37;;
19897;SDS011;10111;50.814;4.572;2022-12-07T04:01:56;12.90;;;8.33;;
19897;SDS011;10111;50.814;4.572;2022-12-07T04:04:26;10.63;;;8.43;;
19897;SDS011;10111;50.814;4.572;2022-12-07T04:06:53;11.17;;;8.57;;
19897;SDS011;10111;50.814;4.572;2022-12-07T04:09:19;12.40;;;8.53;;
19897;SDS011;10111;50.814;4.572;2022-12-07T04:11:44;12.13;;;7.77;;
19897;SDS011;10111;50.814;4.572;2022-12-07T04:14:10;12.97;;;7.57;;
19897;SDS011;10111;50.814;4.572;2022-12-07T04:16:46;9.47;;;7.33;;
19897;SDS011;10111;50.814;4.572;2022-12-07T04:19:22;9.77;;;7.23;;
19897;SDS011;10111;50.814;4.572;2022-12-07T04:21:49;10.23;;;7.00;;
19897;SDS011;10111;50.814;4.572;2022-12-07T04:24:15;10.03;;;6.83;;
19897;SDS011;10111;50.814;4.572;2022-12-07T04:26:41;8.53;;;6.47;;
19897;SDS011;10111;50.814;4.572;2022-12-07T04:29:08;10.20;;;7.20;;
19897;SDS011;10111;50.814;4.572;2022-12-07T04:31:35;9.30;;;6.80;;
19897;SDS011;10111;50.814;4.572;2022-12-07T04:34:00;10.60;;;7.77;;
19897;SDS011;10111;50.814;4.572;2022-12-07T04:36:26;10.53;;;6.83;;
19897;SDS011;10111;50.814;4.572;2022-12-07T04:38:53;12.73;;;7.57;;
19897;SDS011;10111;50.814;4.572;2022-12-07T04:41:19;9.77;;;6.63;;
19897;SDS011;10111;50.814;4.572;2022-12-07T04:43:52;8.57;;;6.80;;
19897;SDS011;10111;50.814;4.572;2022-12-07T04:46:19;9.23;;;6.63;;
19897;SDS011;10111;50.814;4.572;2022-12-07T04:48:44;10.83;;;6.80;;
19897;SDS011;10111;50.814;4.572;2022-12-07T04:51:10;8.30;;;6.97;;
19897;SDS011;10111;50.814;4.572;2022-12-07T04:53:35;9.37;;;7.10;;
19897;SDS011;10111;50.814;4.572;2022-12-07T04:56:01;13.60;;;7.17;;
19897;SDS011;10111;50.814;4.572;2022-12-07T04:58:27;9.57;;;7.23;;
19897;SDS011;10111;50.814;4.572;2022-12-07T05:00:56;7.97;;;6.60;;
19897;SDS011;10111;50.814;4.572;2022-12-07T05:03:21;11.10;;;7.10;;
19897;SDS011;10111;50.814;4.572;2022-12-07T05:05:47;13.10;;;7.70;;
19897;SDS011;10111;50.814;4.572;2022-12-07T05:08:13;12.73;;;8.03;;
19897;SDS011;10111;50.814;4.572;2022-12-07T05:10:38;15.07;;;8.63;;
19897;SDS011;10111;50.814;4.572;2022-12-07T05:13:04;14.03;;;8.70;;
19897;SDS011;10111;50.814;4.572;2022-12-07T05:15:29;9.77;;;7.97;;
19897;SDS011;10111;50.814;4.572;2022-12-07T05:17:55;11.07;;;8.80;;
19897;SDS011;10111;50.814;4.572;2022-12-07T05:20:21;10.73;;;8.50;;
19897;SDS011;10111;50.814;4.572;2022-12-07T05:22:46;11.90;;;8.80;;
19897;SDS011;10111;50.814;4.572;2022-12-07T05:25:12;12.80;;;8.80;;
19897;SDS011;10111;50.814;4.572;2022-12-07T05:27:37;13.03;;;9.57;;
19897;SDS011;10111;50.814;4.572;2022-12-07T05:30:04;12.90;;;9.37;;
19897;SDS011;10111;50.814;4.572;2022-12-07T05:32:30;13.93;;;10.57;;
19897;SDS011;10111;50.814;4.572;2022-12-07T05:34:56;13.10;;;9.80;;
19897;SDS011;10111;50.814;4.572;2022-12-07T05:37:21;13.30;;;8.87;;
19897;SDS011;10111;50.814;4.572;2022-12-07T05:39:47;13.70;;;10.40;;
19897;SDS011;10111;50.814;4.572;2022-12-07T05:42:13;15.83;;;10.30;;
19897;SDS011;10111;50.814;4.572;2022-12-07T05:44:42;16.30;;;9.47;;
19897;SDS011;10111;50.814;4.572;2022-12-07T05:47:10;11.27;;;9.10;;
19897;SDS011;10111;50.814;4.572;2022-12-07T05:49:36;14.33;;;9.43;;
19897;SDS011;10111;50.814;4.572;2022-12-07T05:52:02;12.83;;;9.60;;
19897;SDS011;10111;50.814;4.572;2022-12-07T05:54:28;15.10;;;9.30;;
19897;SDS011;10111;50.814;4.572;2022-12-07T05:56:54;13.47;;;9.53;;
19897;SDS011;10111;50.814;4.572;2022-12-07T05:59:20;11.13;;;8.93;;
19897;SDS011;10111;50.814;4.572;2022-12-07T06:01:52;13.73;;;9.30;;
19897;SDS011;10111;50.814;4.572;2022-12-07T06:04:20;11.00;;;8.40;;
19897;SDS011;10111;50.814;4.572;2022-12-07T06:06:46;14.13;;;8.83;;
19897;SDS011;10111;50.814;4.572;2022-12-07T06:09:13;13.10;;;8.87;;
19897;SDS011;10111;50.814;4.572;2022-12-07T06:11:39;12.30;;;8.97;;
19897;SDS011;10111;50.814;4.572;2022-12-07T06:14:23;15.10;;;9.60;;
19897;SDS011;10111;50.814;4.572;2022-12-07T06:16:49;15.27;;;10.50;;
19897;SDS011;10111;50.814;4.572;2022-12-07T06:19:15;15.80;;;9.03;;
19897;SDS011;10111;50.814;4.572;2022-12-07T06:21:40;15.07;;;9.80;;
19897;SDS011;10111;50.814;4.572;2022-12-07T06:24:06;15.57;;;10.00;;
19897;SDS011;10111;50.814;4.572;2022-12-07T06:26:33;12.80;;;9.43;;
19897;SDS011;10111;50.814;4.572;2022-12-07T06:28:59;14.77;;;9.13;;
19897;SDS011;10111;50.814;4.572;2022-12-07T06:31:24;13.07;;;8.23;;
19897;SDS011;10111;50.814;4.572;2022-12-07T06:33:50;15.93;;;9.60;;
19897;SDS011;10111;50.814;4.572;2022-12-07T06:36:16;18.27;;;9.37;;
19897;SDS011;10111;50.814;4.572;2022-12-07T06:38:42;11.83;;;8.43;;
19897;SDS011;10111;50.814;4.572;2022-12-07T06:41:07;14.30;;;9.40;;
19897;SDS011;10111;50.814;4.572;2022-12-07T06:43:33;12.47;;;8.60;;
19897;SDS011;10111;50.814;4.572;2022-12-07T06:45:59;15.47;;;9.87;;
19897;SDS011;10111;50.814;4.572;2022-12-07T06:48:24;14.73;;;8.23;;
19897;SDS011;10111;50.814;4.572;2022-12-07T06:50:50;9.47;;;7.90;;
19897;SDS011;10111;50.814;4.572;2022-12-07T06:53:16;12.23;;;8.37;;
19897;SDS011;10111;50.814;4.572;2022-12-07T06:55:41;8.90;;;7.83;;
19897;SDS011;10111;50.814;4.572;2022-12-07T06:58:07;10.70;;;8.00;;
19897;SDS011;10111;50.814;4.572;2022-12-07T07:00:33;11.63;;;8.07;;
19897;SDS011;10111;50.814;4.572;2022-12-07T07:03:00;11.90;;;8.37;;
19897;SDS011;10111;50.814;4.572;2022-12-07T07:05:26;14.37;;;8.83;;
19897;SDS011;10111;50.814;4.572;2022-12-07T07:07:51;12.20;;;8.43;;
19897;SDS011;10111;50.814;4.572;2022-12-07T07:10:17;15.33;;;8.63;;
19897;SDS011;10111;50.814;4.572;2022-12-07T07:12:43;16.27;;;8.87;;
19897;SDS011;10111;50.814;4.572;2022-12-07T07:15:08;11.57;;;8.13;;
19897;SDS011;10111;50.814;4.572;2022-12-07T07:17:36;13.27;;;8.53;;
19897;SDS011;10111;50.814;4.572;2022-12-07T07:20:02;11.30;;;7.93;;
19897;SDS011;10111;50.814;4.572;2022-12-07T07:22:28;17.07;;;8.90;;
19897;SDS011;10111;50.814;4.572;2022-12-07T07:24:53;14.97;;;8.00;;
19897;SDS011;10111;50.814;4.572;2022-12-07T07:27:19;14.90;;;8.47;;
19897;SDS011;10111;50.814;4.572;2022-12-07T07:29:45;14.27;;;8.47;;
19897;SDS011;10111;50.814;4.572;2022-12-07T07:32:10;17.97;;;10.23;;
19897;SDS011;10111;50.814;4.572;2022-12-07T07:34:37;13.10;;;8.43;;
19897;SDS011;10111;50.814;4.572;2022-12-07T07:37:03;14.80;;;9.53;;
19897;SDS011;10111;50.814;4.572;2022-12-07T07:39:28;10.83;;;7.77;;
19897;SDS011;10111;50.814;4.572;2022-12-07T07:41:54;14.37;;;8.27;;
19897;SDS011;10111;50.814;4.572;2022-12-07T07:44:19;13.60;;;8.80;;
19897;SDS011;10111;50.814;4.572;2022-12-07T07:46:45;12.57;;;8.67;;
19897;SDS011;10111;50.814;4.572;2022-12-07T07:49:11;23.73;;;12.57;;
19897;SDS011;10111;50.814;4.572;2022-12-07T07:51:37;13.50;;;9.53;;
19897;SDS011;10111;50.814;4.572;2022-12-07T07:54:02;17.30;;;9.90;;
19897;SDS011;10111;50.814;4.572;2022-12-07T07:56:28;45.03;;;24.57;;
19897;SDS011;10111;50.814;4.572;2022-12-07T07:58:54;41.53;;;19.43;;
19897;SDS011;10111;50.814;4.572;2022-12-07T08:01:20;38.20;;;20.87;;
19897;SDS011;10111;50.814;4.572;2022-12-07T08:03:46;30.10;;;18.67;;
19897;SDS011;10111;50.814;4.572;2022-12-07T08:06:12;25.23;;;18.37;;
19897;SDS011;10111;50.814;4.572;2022-12-07T08:08:37;15.33;;;11.20;;
19897;SDS011;10111;50.814;4.572;2022-12-07T08:11:07;10.53;;;8.63;;
19897;SDS011;10111;50.814;4.572;2022-12-07T08:13:33;10.43;;;6.83;;
19897;SDS011;10111;50.814;4.572;2022-12-07T08:15:59;11.57;;;7.57;;
19897;SDS011;10111;50.814;4.572;2022-12-07T08:18:37;9.83;;;7.27;;
19897;SDS011;10111;50.814;4.572;2022-12-07T08:21:04;10.00;;;6.33;;
19897;SDS011;10111;50.814;4.572;2022-12-07T08:23:31;8.00;;;6.07;;
19897;SDS011;10111;50.814;4.572;2022-12-07T08:26:00;8.73;;;6.37;;
19897;SDS011;10111;50.814;4.572;2022-12-07T08:28:27;10.47;;;7.17;;
19897;SDS011;10111;50.814;4.572;2022-12-07T08:31:05;7.17;;;6.23;;
19897;SDS011;10111;50.814;4.572;2022-12-07T08:33:33;10.13;;;5.73;;
19897;SDS011;10111;50.814;4.572;2022-12-07T08:36:00;8.37;;;6.53;;
19897;SDS011;10111;50.814;4.572;2022-12-07T08:38:27;7.90;;;6.87;;
19897;SDS011;10111;50.814;4.572;2022-12-07T08:40:53;9.47;;;6.00;;
19897;SDS011;10111;50.814;4.572;2022-12-07T08:43:20;12.87;;;6.13;;
19897;SDS011;10111;50.814;4.572;2022-12-07T08:45:46;8.97;;;7.90;;
19897;SDS011;10111;50.814;4.572;2022-12-07T08:48:17;8.47;;;6.63;;
19897;SDS011;10111;50.814;4.572;2022-12-07T08:50:46;10.37;;;6.63;;
19897;SDS011;10111;50.814;4.572;2022-12-07T08:53:13;14.17;;;7.40;;
19897;SDS011;10111;50.814;4.572;2022-12-07T08:55:39;10.87;;;6.53;;
19897;SDS011;10111;50.814;4.572;2022-12-07T08:58:05;9.43;;;7.33;;
19897;SDS011;10111;50.814;4.572;2022-12-07T09:00:30;11.47;;;6.83;;
19897;SDS011;10111;50.814;4.572;2022-12-07T09:02:56;13.93;;;7.80;;
19897;SDS011;10111;50.814;4.572;2022-12-07T09:05:22;12.73;;;7.77;;
19897;SDS011;10111;50.814;4.572;2022-12-07T09:07:49;12.27;;;7.83;;
19897;SDS011;10111;50.814;4.572;2022-12-07T09:10:17;15.60;;;8.50;;
19897;SDS011;10111;50.814;4.572;2022-12-07T09:12:43;19.87;;;9.10;;
19897;SDS011;10111;50.814;4.572;2022-12-07T09:15:08;10.07;;;6.97;;
19897;SDS011;10111;50.814;4.572;2022-12-07T09:17:34;9.70;;;7.43;;
19897;SDS011;10111;50.814;4.572;2022-12-07T09:20:01;12.77;;;7.20;;
19897;SDS011;10111;50.814;4.572;2022-12-07T09:22:30;8.67;;;5.83;;
19897;SDS011;10111;50.814;4.572;2022-12-07T09:24:57;10.67;;;5.70;;
19897;SDS011;10111;50.814;4.572;2022-12-07T09:27:23;12.30;;;5.93;;
19897;SDS011;10111;50.814;4.572;2022-12-07T09:29:49;8.00;;;6.30;;
19897;SDS011;10111;50.814;4.572;2022-12-07T09:32:14;6.47;;;5.37;;
19897;SDS011;10111;50.814;4.572;2022-12-07T09:34:40;8.13;;;6.43;;
19897;SDS011;10111;50.814;4.572;2022-12-07T09:37:06;11.43;;;6.67;;
19897;SDS011;10111;50.814;4.572;2022-12-07T09:39:32;9.17;;;5.63;;
19897;SDS011;10111;50.814;4.572;2022-12-07T09:41:58;8.80;;;5.10;;
19897;SDS011;10111;50.814;4.572;2022-12-07T09:44:27;9.20;;;6.43;;
19897;SDS011;10111;50.814;4.572;2022-12-07T09:46:53;10.07;;;6.23;;
19897;SDS011;10111;50.814;4.572;2022-12-07T09:49:24;12.50;;;6.13;;
19897;SDS011;10111;50.814;4.572;2022-12-07T09:52:00;10.23;;;6.23;;
19897;SDS011;10111;50.814;4.572;2022-12-07T09:54:26;10.20;;;5.87;;
19897;SDS011;10111;50.814;4.572;2022-12-07T09:56:53;9.67;;;7.20;;
19897;SDS011;10111;50.814;4.572;2022-12-07T09:59:19;9.33;;;6.57;;
19897;SDS011;10111;50.814;4.572;2022-12-07T10:01:46;11.87;;;7.80;;
19897;SDS011;10111;50.814;4.572;2022-12-07T10:06:46;12.57;;;7.47;;
19897;SDS011;10111;50.814;4.572;2022-12-07T10:09:13;11.50;;;8.07;;
19897;SDS011;10111;50.814;4.572;2022-12-07T10:15:00;9.10;;;6.33;;
19897;SDS011;10111;50.814;4.572;2022-12-07T10:22:37;10.13;;;6.17;;
19897;SDS011;10111;50.814;4.572;2022-12-07T10:25:16;10.53;;;7.13;;
19897;SDS011;10111;50.814;4.572;2022-12-07T10:27:45;10.20;;;7.27;;
19897;SDS011;10111;50.814;4.572;2022-12-07T10:30:23;11.43;;;7.20;;
19897;SDS011;10111;50.814;4.572;2022-12-07T10:32:48;11.33;;;6.50;;
19897;SDS011;10111;50.814;4.572;2022-12-07T10:35:19;9.33;;;6.20;;
19897;SDS011;10111;50.814;4.572;2022-12-07T10:37:50;7.13;;;5.67;;
19897;SDS011;10111;50.814;4.572;2022-12-07T10:40:29;9.67;;;6.00;;
19897;SDS011;10111;50.814;4.572;2022-12-07T10:43:15;9.30;;;6.13;;
19897;SDS011;10111;50.814;4.572;2022-12-07T10:51:51;9.33;;;5.80;;
19897;SDS011;10111;50.814;4.572;2022-12-07T11:00:46;8.77;;;6.07;;
19897;SDS011;10111;50.814;4.572;2022-12-07T11:06:10;8.83;;;6.20;;
19897;SDS011;10111;50.814;4.572;2022-12-07T11:08:42;9.77;;;6.07;;
19897;SDS011;10111;50.814;4.572;2022-12-07T11:14:09;13.30;;;7.30;;
19897;SDS011;10111;50.814;4.572;2022-12-07T11:16:57;12.83;;;7.87;;
19897;SDS011;10111;50.814;4.572;2022-12-07T11:32:49;13.57;;;7.23;;
19897;SDS011;10111;50.814;4.572;2022-12-07T11:37:48;11.30;;;6.70;;
19897;SDS011;10111;50.814;4.572;2022-12-07T11:40:21;14.83;;;9.37;;
19897;SDS011;10111;50.814;4.572;2022-12-07T11:43:05;16.53;;;10.20;;
19897;SDS011;10111;50.814;4.572;2022-12-07T11:45:33;18.73;;;10.47;;
19897;SDS011;10111;50.814;4.572;2022-12-07T11:53:16;11.70;;;6.77;;
19897;SDS011;10111;50.814;4.572;2022-12-07T12:04:19;12.57;;;6.93;;
19897;SDS011;10111;50.814;4.572;2022-12-07T12:06:54;8.27;;;5.57;;
19897;SDS011;10111;50.814;4.572;2022-12-07T12:09:29;9.93;;;5.97;;
19897;SDS011;10111;50.814;4.572;2022-12-07T12:17:38;9.70;;;6.23;;
19897;SDS011;10111;50.814;4.572;2022-12-07T12:25:46;8.63;;;5.93;;
19897;SDS011;10111;50.814;4.572;2022-12-07T12:28:32;8.60;;;5.20;;
19897;SDS011;10111;50.814;4.572;2022-12-07T12:31:11;9.13;;;6.17;;
19897;SDS011;10111;50.814;4.572;2022-12-07T12:33:38;11.50;;;5.53;;
19897;SDS011;10111;50.814;4.572;2022-12-07T12:41:52;5.87;;;4.30;;
19897;SDS011;10111;50.814;4.572;2022-12-07T12:46:46;7.07;;;3.97;;
19897;SDS011;10111;50.814;4.572;2022-12-07T13:13:00;4.77;;;2.67;;
19897;SDS011;10111;50.814;4.572;2022-12-07T13:15:45;3.20;;;2.43;;
19897;SDS011;10111;50.814;4.572;2022-12-07T13:26:12;9.83;;;3.83;;
19897;SDS011;10111;50.814;4.572;2022-12-07T13:28:39;6.40;;;3.03;;
19897;SDS011;10111;50.814;4.572;2022-12-07T13:33:46;6.97;;;3.50;;
19897;SDS011;10111;50.814;4.572;2022-12-07T13:36:20;6.70;;;3.33;;
19897;SDS011;10111;50.814;4.572;2022-12-07T13:38:52;5.90;;;3.40;;
19897;SDS011;10111;50.814;4.572;2022-12-07T13:41:23;8.53;;;3.77;;
19897;SDS011;10111;50.814;4.572;2022-12-07T13:43:59;3.63;;;2.20;;
19897;SDS011;10111;50.814;4.572;2022-12-07T13:46:37;3.33;;;2.10;;
19897;SDS011;10111;50.814;4.572;2022-12-07T13:52:16;8.03;;;3.40;;
19897;SDS011;10111;50.814;4.572;2022-12-07T13:57:31;2.40;;;2.20;;
19897;SDS011;10111;50.814;4.572;2022-12-07T13:59:59;2.87;;;2.27;;
19897;SDS011;10111;50.814;4.572;2022-12-07T14:02:30;3.67;;;2.43;;
19897;SDS011;10111;50.814;4.572;2022-12-07T14:05:35;3.33;;;2.63;;
19897;SDS011;10111;50.814;4.572;2022-12-07T14:12:59;5.87;;;3.53;;
19897;SDS011;10111;50.814;4.572;2022-12-07T14:15:30;7.97;;;5.20;;
19897;SDS011;10111;50.814;4.572;2022-12-07T14:17:57;8.00;;;4.07;;
19897;SDS011;10111;50.814;4.572;2022-12-07T14:20:38;7.87;;;4.60;;
19897;SDS011;10111;50.814;4.572;2022-12-07T14:23:05;6.13;;;3.50;;
19897;SDS011;10111;50.814;4.572;2022-12-07T14:25:51;9.10;;;5.50;;
19897;SDS011;10111;50.814;4.572;2022-12-07T14:28:28;5.80;;;5.10;;
19897;SDS011;10111;50.814;4.572;2022-12-07T14:30:56;6.30;;;4.33;;
19897;SDS011;10111;50.814;4.572;2022-12-07T14:33:23;5.57;;;4.33;;
19897;SDS011;10111;50.814;4.572;2022-12-07T14:35:49;6.33;;;4.10;;
19897;SDS011;10111;50.814;4.572;2022-12-07T14:38:19;5.70;;;2.93;;
19897;SDS011;10111;50.814;4.572;2022-12-07T14:40:45;6.10;;;2.97;;
19897;SDS011;10111;50.814;4.572;2022-12-07T14:43:12;3.77;;;2.50;;
19897;SDS011;10111;50.814;4.572;2022-12-07T14:45:39;4.00;;;2.77;;
19897;SDS011;10111;50.814;4.572;2022-12-07T14:48:05;5.63;;;2.67;;
19897;SDS011;10111;50.814;4.572;2022-12-07T14:50:34;3.97;;;3.17;;
19897;SDS011;10111;50.814;4.572;2022-12-07T14:53:03;8.70;;;4.00;;
19897;SDS011;10111;50.814;4.572;2022-12-07T14:55:47;8.40;;;4.53;;
19897;SDS011;10111;50.814;4.572;2022-12-07T14:58:13;7.50;;;3.97;;
19897;SDS011;10111;50.814;4.572;2022-12-07T15:00:40;12.03;;;7.20;;
19897;SDS011;10111;50.814;4.572;2022-12-07T15:03:05;9.93;;;6.00;;
19897;SDS011;10111;50.814;4.572;2022-12-07T15:05:31;8.87;;;5.37;;
19897;SDS011;10111;50.814;4.572;2022-12-07T15:07:58;9.87;;;5.33;;
19897;SDS011;10111;50.814;4.572;2022-12-07T15:10:25;8.43;;;4.40;;
19897;SDS011;10111;50.814;4.572;2022-12-07T15:12:55;4.43;;;3.93;;
19897;SDS011;10111;50.814;4.572;2022-12-07T15:15:44;5.33;;;4.53;;
19897;SDS011;10111;50.814;4.572;2022-12-07T15:18:11;8.33;;;5.13;;
19897;SDS011;10111;50.814;4.572;2022-12-07T15:20:37;6.97;;;4.47;;
19897;SDS011;10111;50.814;4.572;2022-12-07T15:23:02;9.33;;;5.40;;
19897;SDS011;10111;50.814;4.572;2022-12-07T15:25:28;5.83;;;4.80;;
19897;SDS011;10111;50.814;4.572;2022-12-07T15:27:54;7.70;;;4.87;;
19897;SDS011;10111;50.814;4.572;2022-12-07T15:30:19;6.67;;;4.57;;
19897;SDS011;10111;50.814;4.572;2022-12-07T15:32:48;6.10;;;4.03;;
19897;SDS011;10111;50.814;4.572;2022-12-07T15:35:15;7.00;;;4.50;;
19897;SDS011;10111;50.814;4.572;2022-12-07T15:37:41;6.90;;;4.93;;
19897;SDS011;10111;50.814;4.572;2022-12-07T15:40:06;7.30;;;4.13;;
19897;SDS011;10111;50.814;4.572;2022-12-07T15:42:33;9.17;;;5.63;;
19897;SDS011;10111;50.814;4.572;2022-12-07T15:44:59;6.00;;;4.20;;
19897;SDS011;10111;50.814;4.572;2022-12-07T15:47:31;5.67;;;4.00;;
19897;SDS011;10111;50.814;4.572;2022-12-07T15:50:02;5.30;;;3.43;;
19897;SDS011;10111;50.814;4.572;2022-12-07T15:52:29;5.80;;;3.50;;
19897;SDS011;10111;50.814;4.572;2022-12-07T15:54:55;4.97;;;3.40;;
19897;SDS011;10111;50.814;4.572;2022-12-07T15:57:21;6.13;;;3.70;;
19897;SDS011;10111;50.814;4.572;2022-12-07T15:59:46;4.33;;;3.93;;
19897;SDS011;10111;50.814;4.572;2022-12-07T16:02:16;7.93;;;3.07;;
19897;SDS011;10111;50.814;4.572;2022-12-07T16:04:41;5.03;;;3.43;;
19897;SDS011;10111;50.814;4.572;2022-12-07T16:07:07;4.97;;;3.10;;
19897;SDS011;10111;50.814;4.572;2022-12-07T16:09:33;8.97;;;5.60;;
19897;SDS011;10111;50.814;4.572;2022-12-07T16:11:58;10.57;;;5.23;;
19897;SDS011;10111;50.814;4.572;2022-12-07T16:14:24;7.63;;;4.00;;
19897;SDS011;10111;50.814;4.572;2022-12-07T16:16:50;9.83;;;4.67;;
19897;SDS011;10111;50.814;4.572;2022-12-07T16:19:16;7.67;;;4.23;;
19897;SDS011;10111;50.814;4.572;2022-12-07T16:21:41;9.03;;;5.47;;
19897;SDS011;10111;50.814;4.572;2022-12-07T16:24:07;10.30;;;4.97;;
19897;SDS011;10111;50.814;4.572;2022-12-07T16:26:33;7.97;;;4.20;;
19897;SDS011;10111;50.814;4.572;2022-12-07T16:28:59;13.53;;;7.37;;
19897;SDS011;10111;50.814;4.572;2022-12-07T16:31:26;10.07;;;6.03;;
19897;SDS011;10111;50.814;4.572;2022-12-07T16:33:53;11.03;;;6.40;;
19897;SDS011;10111;50.814;4.572;2022-12-07T16:36:20;16.40;;;7.20;;
19897;SDS011;10111;50.814;4.572;2022-12-07T16:38:47;13.60;;;8.37;;
19897;SDS011;10111;50.814;4.572;2022-12-07T16:41:13;12.50;;;6.27;;
19897;SDS011;10111;50.814;4.572;2022-12-07T16:43:39;8.73;;;5.77;;
19897;SDS011;10111;50.814;4.572;2022-12-07T16:46:05;9.57;;;5.37;;
19897;SDS011;10111;50.814;4.572;2022-12-07T16:48:30;10.27;;;6.33;;
19897;SDS011;10111;50.814;4.572;2022-12-07T16:50:56;9.43;;;5.17;;
19897;SDS011;10111;50.814;4.572;2022-12-07T16:53:23;13.50;;;7.00;;
19897;SDS011;10111;50.814;4.572;2022-12-07T16:55:49;10.47;;;6.40;;
19897;SDS011;10111;50.814;4.572;2022-12-07T16:58:15;6.50;;;4.27;;
19897;SDS011;10111;50.814;4.572;2022-12-07T17:00:42;4.53;;;3.00;;
19897;SDS011;10111;50.814;4.572;2022-12-07T17:03:09;7.07;;;4.70;;
19897;SDS011;10111;50.814;4.572;2022-12-07T17:05:41;11.03;;;5.37;;
19897;SDS011;10111;50.814;4.572;2022-12-07T17:08:08;7.43;;;5.13;;
19897;SDS011;10111;50.814;4.572;2022-12-07T17:10:35;8.73;;;4.97;;
19897;SDS011;10111;50.814;4.572;2022-12-07T17:13:02;10.80;;;4.80;;
19897;SDS011;10111;50.814;4.572;2022-12-07T17:15:58;5.10;;;3.77;;
19897;SDS011;10111;50.814;4.572;2022-12-07T17:18:26;14.23;;;6.97;;
19897;SDS011;10111;50.814;4.572;2022-12-07T17:21:04;8.47;;;5.27;;
19897;SDS011;10111;50.814;4.572;2022-12-07T17:23:32;8.53;;;4.87;;
19897;SDS011;10111;50.814;4.572;2022-12-07T17:26:05;12.53;;;5.80;;